Total volume
$17,584
$2 in 24h
Trades
789
Unique wallets
485
Liquidity
$10,510
Latest YES mid
40¢
Latest NO mid
60¢
End date
2026-05-07
First seen
2026-05-07
last 05-07 07:29
Cohort breakdown
who's buying — by wallet tier SMI: +1.8¢ (top1%: 10% YES on $4.3K vs crowd: 8% YES on $15.6K)
By volume tier
Tier Wallets YES buy NO buy Net bias
🐬 Dolphin 5 $402 $3.4K $3.0K
🐟 Fish 29 $206 $5.8K $5.6K
🦐 Shrimp 451 $685 $5.1K $4.4K
By P&L percentile
Tier Wallets YES buy NO buy Net bias
🎯 Top 1% 21 $430 $3.8K $3.4K
🏆 Top 5% 51 $129 $3.5K $3.3K
✅ Top 10% 70 $70 $895 $824
Median 113 $26 $2.1K $2.0K
Below median 117 $66 $691 $625
⚠️ Bottom 10% 43 $23 $516 $493
🔻 Bottom 5% 39 $111 $711 $600
💀 Bottom 1% 5 $303 $468 $165
unranked 26 $134 $1.7K $1.6K
Wallet Side Net shares Cost basis Volume Trades Last activity
Slow-Minute 0xdf0d…9f79 Down +2,500 $2,475 $2,475 2 05-07 07:29
Alert-Oncology 0x8470…70c4 Down +1,769 $1,751 $1,751 1 05-07 07:29
Zealous-Violence 0xa697…59d5 Down +1,649 $1,611 $1,611 2 05-07 07:29
(anonymous) 0xe907…cff6 Up +1,142 $269 $269 4 05-07 07:29
Soulful-Stucco 0x8a72…3b30 Up +1,100 $51 $51 3 05-07 07:29
Breakable-Willow 0xae73…31a4 Down +1,008 $998 $998 1 05-07 07:29
Flickering-Commuter 0x2334…9a9f Up +1,000 $45 $45 2 05-07 07:29
Conscious-Glass 0x090a…27e7 Up +1,000 $32 $32 2 05-07 07:29
Little-Fraction 0xcfb1…f694 Up +668 $48 $48 3 05-07 07:29
Popular-Insurrection 0xeebd…ba30 Up +574 $131 $131 10 05-07 07:29
Lively-Authenticity 0xb55f…64d4 Down +548 $453 $453 2 05-07 07:29
Little-Fraction 0xcfb1…f694 Down +412 $388 $388 2 05-07 07:29
Detailed-Caviar 0xd0aa…57ae Up +362 $66 $66 3 05-07 07:29
Popular-Insurrection 0xeebd…ba30 Down +323 $293 $293 3 05-07 07:29
Sinful-Sled 0xd80a…c714 Down +306 $300 $300 1 05-07 07:29
Creepy-Pruner 0x03cf…7260 Down +300 $280 $280 6 05-07 07:29
(anonymous) 0x45b4…e8a9 Up +294 $3 $3 1 05-07 07:29
Scented-Compliment 0x35ef…62b2 Up +250 $5 $5 1 05-07 07:29
(anonymous) 0x8050…29bd Up +231 $2 $2 17 05-07 07:29
Rectangular-Tunnel 0x2dca…3401 Down +230 $228 $228 1 05-07 07:29
Agile-Spacing 0xce25…7fdc Down +229 $179 $179 4 05-07 07:29
Perfumed-Intellect 0xa71b…59b5 Up +200 $11 $11 1 05-07 07:29
Noisy-Death 0x2eb8…310f Down +200 $196 $196 1 05-07 07:29
Double-Compassion 0x5f02…c123 Down +200 $196 $196 1 05-07 07:29
Clever-Virus 0x73a2…3b68 Up +197 $12 $12 2 05-07 07:29
Exalted-Mattress 0xa8cc…41a9 Down +168 $159 $159 2 05-07 07:29
Wordy-Biosphere 0xa689…559b Up +159 $16 $16 1 05-07 07:29
Quick-Adult 0xab50…79bd Down +145 $100 $100 1 05-07 07:28
Belated-Checkout 0x88be…97d3 Down +144 $100 $100 1 05-07 07:28
Queasy-Temple 0x14f8…e3e6 Down +141 $135 $135 1 05-07 07:29
Mad-Plot 0x2709…20f5 Down +132 $125 $125 8 05-07 07:29
Infantile-Outfielder 0xabb7…df91 Up +110 $5 $5 3 05-07 07:29
Coarse-Nonsense 0x8231…c02e Up +105 $36 $36 3 05-07 07:28
Jubilant-Drain 0xd28d…9d09 Down +104 $100 $100 1 05-07 07:29
Whole-Array 0x9bab…f109 Down +103 $100 $100 1 05-07 07:29
Knowledgeable-Guestbook 0x7092…a9c8 Down +102 $95 $95 1 05-07 07:29
Feline-Tuition 0xce5b…6630 Down +101 $100 $100 1 05-07 07:29
Stark-Till 0x7c5a…e323 Down +100 $93 $93 1 05-07 07:29
Entire-Developmental 0x8083…3a61 Up +100 $2 $2 1 05-07 07:29
Wee-Infrastructure 0x9ac2…a3f6 Up +100 $3 $3 1 05-07 07:29
Fantastic-Tenor 0x31e7…47aa Down +100 $93 $93 1 05-07 07:29
Vibrant-Alien 0xb3ad…7e0d Down +100 $95 $95 1 05-07 07:29
Mean-Mango 0xd8cb…7a69 Down +100 $99 $99 1 05-07 07:29
Curvy-Ironclad 0x8428…b41f Up +93 $3 $3 2 05-07 07:29
Ironclad-Dynamo 0x98e9…2e6f Up +83 $5 $5 1 05-07 07:29
Accomplished-Stance 0xc13e…7a92 Up +83 $5 $5 1 05-07 07:29
Pointless-Prosecution 0xc8b2…94d1 Up +83 $5 $5 1 05-07 07:29
Far-Manatee 0x93b7…c330 Up +83 $5 $5 1 05-07 07:29
Plaintive-Lode 0x2336…039d Down +81 $80 $80 1 05-07 07:29
Exalted-Mattress 0xa8cc…41a9 Up +80 $7 $7 1 05-07 07:29
Sentimental-Clearing 0x6142…367b Down +80 $41 $41 6 05-07 07:24
Angelic-Littleneck 0x8a0e…e03e Up +77 $29 $29 1 05-07 07:28
Unlined-Racer 0xd47c…3f0e Up +72 $24 $24 1 05-07 07:28
Misty-Gastropod 0xb42a…9bfc Down +68 $67 $67 1 05-07 07:29
Serpentine-Digestive 0x1eee…f561 Up +61 $30 $30 1 05-07 07:23
Drafty-Spider 0xc216…7071 Down +61 $60 $60 1 05-07 07:29
Gray-Water 0x6560…a3db Up +60 $1 $1 2 05-07 07:29
Ancient-Mineral 0xf0de…3c33 Up +60 $21 $21 4 05-07 07:28
Monstrous-Dew 0x5b63…11a4 Up +59 $22 $22 1 05-07 07:28
Mad-Plot 0x2709…20f5 Up +58 $4 $4 3 05-07 07:29